Time;durP1;ratioP1;P1;durP2;ratioP2;P2;SDS_P1;SDS_P2;PMS_P1;PMS_P2;Temp;Humidity;BMP_temperature;BMP_pressure;BME280_temperature;BME280_humidity;BME280_pressure;Samples;Min_cycle;Max_cycle;Signal;HPM_P1;HPM_P2
2023/05/12 00:01:27;;;;;;;8.37;6.40;;;15.50;99.90;;;;;;4965365;28;20476;-83
2023/05/12 00:04:06;;;;;;;9.30;6.83;;;15.50;99.90;;;;;;4962294;28;20480;-82
2023/05/12 00:06:39;;;;;;;10.00;7.20;;;15.50;99.90;;;;;;4966123;28;20526;-84
2023/05/12 00:09:26;;;;;;;8.27;5.83;;;15.40;99.90;;;;;;4964537;28;20511;-83
2023/05/12 00:12:06;;;;;;;9.70;6.80;;;15.40;99.90;;;;;;4972316;28;20463;-82
2023/05/12 00:14:39;;;;;;;6.83;5.43;;;15.40;99.90;;;;;;4961815;28;20456;-83
2023/05/12 00:17:08;;;;;;;9.33;6.40;;;15.40;99.90;;;;;;4976884;28;20440;-83
2023/05/12 00:19:49;;;;;;;10.37;5.90;;;15.40;99.90;;;;;;4981150;28;20456;-83
2023/05/12 00:22:26;;;;;;;6.60;5.33;;;15.30;99.90;;;;;;4984869;28;20463;-83
2023/05/12 00:25:02;;;;;;;8.67;5.70;;;15.30;99.90;;;;;;4996797;28;20472;-83
2023/05/12 00:27:37;;;;;;;8.90;6.10;;;15.30;99.90;;;;;;4979777;28;20452;-84
2023/05/12 00:30:05;;;;;;;9.30;6.50;;;15.30;99.90;;;;;;4975555;28;20487;-84
2023/05/12 00:32:46;;;;;;;10.93;7.90;;;15.30;99.90;;;;;;4974511;28;20560;-83
2023/05/12 00:35:18;;;;;;;10.73;7.00;;;15.30;99.90;;;;;;4974753;28;20476;-84
2023/05/12 00:37:53;;;;;;;9.97;7.00;;;15.40;99.90;;;;;;4974678;28;20509;-83
2023/05/12 00:40:28;;;;;;;11.13;7.90;;;15.30;99.90;;;;;;4974315;28;20433;-83
2023/05/12 00:43:07;;;;;;;11.37;7.73;;;15.30;99.90;;;;;;4974322;28;20484;-83
2023/05/12 00:45:37;;;;;;;11.40;8.50;;;15.40;99.90;;;;;;4967805;28;20523;-82
2023/05/12 00:48:11;;;;;;;11.60;8.30;;;15.40;99.90;;;;;;4970416;29;20460;-83
2023/05/12 00:50:40;;;;;;;11.83;8.30;;;15.40;99.90;;;;;;4972668;28;20449;-83
2023/05/12 00:53:22;;;;;;;11.63;7.90;;;15.40;99.90;;;;;;4969896;28;21126;-81
2023/05/12 00:56:01;;;;;;;13.73;8.10;;;15.40;99.90;;;;;;4957024;28;20917;-82
2023/05/12 00:58:32;;;;;;;14.10;9.20;;;15.40;99.90;;;;;;4960066;28;20460;-83
2023/05/12 01:01:01;;;;;;;14.17;8.40;;;15.40;99.90;;;;;;4961352;28;20460;-81
2023/05/12 01:03:32;;;;;;;9.47;7.90;;;15.40;99.90;;;;;;4956919;28;20552;-82
2023/05/12 01:06:15;;;;;;;13.30;9.00;;;15.30;99.90;;;;;;4973238;28;20453;-83
2023/05/12 01:11:58;;;;;;;12.50;8.30;;;15.30;99.90;;;;;;4973979;28;20477;-82
2023/05/12 01:14:43;;;;;;;12.17;8.13;;;15.40;99.90;;;;;;4966272;28;20459;-83
2023/05/12 01:17:24;;;;;;;11.57;8.57;;;15.40;99.90;;;;;;4968404;28;20472;-84
2023/05/12 01:20:04;;;;;;;12.23;7.80;;;15.40;99.90;;;;;;4965204;28;20457;-83
2023/05/12 01:22:38;;;;;;;13.57;8.17;;;15.40;99.90;;;;;;4952258;28;20484;-82
2023/05/12 01:25:12;;;;;;;13.10;7.60;;;15.40;99.90;;;;;;4950549;28;21330;-82
2023/05/12 01:27:45;;;;;;;10.70;7.60;;;15.40;99.90;;;;;;4948170;28;20472;-82
2023/05/12 01:30:27;;;;;;;10.80;7.40;;;15.40;99.90;;;;;;4952590;28;20552;-83
2023/05/12 01:33:04;;;;;;;12.57;7.80;;;15.40;99.90;;;;;;4957901;28;20500;-81
2023/05/12 01:35:38;;;;;;;10.00;7.47;;;15.30;99.90;;;;;;4957060;28;20480;-82
2023/05/12 01:38:14;;;;;;;14.37;7.67;;;15.30;99.90;;;;;;4960680;28;20441;-82
2023/05/12 01:40:49;;;;;;;9.07;6.20;;;15.20;99.90;;;;;;4956642;28;20471;-82
2023/05/12 01:43:29;;;;;;;10.47;6.53;;;15.20;99.90;;;;;;4957636;28;20457;-81
2023/05/12 01:46:01;;;;;;;10.47;6.83;;;15.20;99.90;;;;;;4959792;28;20967;-81
2023/05/12 01:48:37;;;;;;;10.63;6.80;;;15.10;99.90;;;;;;4959525;28;20472;-82
2023/05/12 01:51:09;;;;;;;9.50;6.87;;;15.20;99.90;;;;;;4960347;28;20449;-83
2023/05/12 01:53:49;;;;;;;9.30;7.40;;;15.20;99.90;;;;;;4967709;28;20487;-82
2023/05/12 01:56:25;;;;;;;9.17;7.03;;;15.20;99.90;;;;;;4964219;28;20472;-82
2023/05/12 01:59:05;;;;;;;10.27;7.00;;;15.20;99.90;;;;;;4967303;28;20478;-81
2023/05/12 02:01:47;;;;;;;11.53;7.50;;;15.30;99.90;;;;;;4972206;28;20468;-82
2023/05/12 02:04:20;;;;;;;8.60;6.50;;;15.30;99.90;;;;;;4961156;28;20496;-82
2023/05/12 02:06:55;;;;;;;10.03;7.57;;;15.30;99.90;;;;;;4961019;28;20503;-82
2023/05/12 02:09:33;;;;;;;8.93;6.50;;;15.30;99.90;;;;;;4962617;28;21211;-81
2023/05/12 02:12:03;;;;;;;11.50;7.20;;;15.40;99.90;;;;;;4960539;28;20498;-82
2023/05/12 02:14:39;;;;;;;10.60;6.70;;;15.40;99.90;;;;;;4962964;29;20449;-83
2023/05/12 02:17:09;;;;;;;9.23;6.90;;;15.60;99.90;;;;;;4964281;28;20461;-83
2023/05/12 02:19:52;;;;;;;10.50;7.60;;;15.60;99.90;;;;;;4964808;28;20499;-83
2023/05/12 02:22:30;;;;;;;9.67;5.90;;;15.60;99.90;;;;;;4964487;28;20472;-83
2023/05/12 02:25:03;;;;;;;7.20;6.17;;;15.50;99.90;;;;;;4962270;28;20465;-83
2023/05/12 02:27:39;;;;;;;10.63;7.10;;;15.50;99.90;;;;;;4969601;28;20570;-82
2023/05/12 02:30:19;;;;;;;9.93;6.80;;;15.60;99.90;;;;;;4966885;28;20504;-83
2023/05/12 02:32:53;;;;;;;11.47;7.40;;;15.50;99.90;;;;;;4960912;28;20483;-83
2023/05/12 02:35:32;;;;;;;8.37;5.97;;;15.50;99.90;;;;;;4958919;28;20515;-83
2023/05/12 02:38:03;;;;;;;8.90;6.47;;;15.60;99.90;;;;;;4957716;28;20453;-84
2023/05/12 02:40:34;;;;;;;13.93;7.93;;;15.50;99.90;;;;;;4960462;28;20579;-82
2023/05/12 02:43:30;;;;;;;9.13;6.70;;;15.50;99.90;;;;;;4963623;28;20476;-83
2023/05/12 02:46:28;;;;;;;10.07;7.07;;;15.70;99.90;;;;;;4953428;28;20812;-81
2023/05/12 02:48:56;;;;;;;9.93;7.40;;;15.70;99.90;;;;;;4964986;29;20606;-83
2023/05/12 02:51:44;;;;;;;9.70;7.27;;;15.90;99.90;;;;;;4961598;28;20492;-82
2023/05/12 02:54:15;;;;;;;10.43;7.10;;;15.60;99.90;;;;;;4955022;28;20511;-82
2023/05/12 02:56:48;;;;;;;10.00;7.10;;;15.50;99.90;;;;;;4962242;29;20479;-81
2023/05/12 02:59:29;;;;;;;11.97;7.00;;;15.50;99.90;;;;;;4965325;28;20452;-81
2023/05/12 03:02:19;;;;;;;10.83;7.27;;;15.60;99.90;;;;;;4956787;28;21252;-82
2023/05/12 03:05:12;;;;;;;9.80;7.30;;;15.70;99.90;;;;;;4962412;28;20473;-82
2023/05/12 03:08:01;;;;;;;9.53;6.37;;;15.80;99.90;;;;;;4974692;28;20819;-83
2023/05/12 03:10:34;;;;;;;11.30;6.97;;;15.80;99.90;;;;;;4963498;28;20482;-81
2023/05/12 03:13:06;;;;;;;10.50;7.07;;;16.10;99.90;;;;;;4942588;29;20469;-82
2023/05/12 03:15:39;;;;;;;7.30;6.33;;;15.90;99.90;;;;;;4956176;28;20465;-84
2023/05/12 03:18:20;;;;;;;8.27;5.80;;;15.80;99.90;;;;;;4975783;28;20537;-83
2023/05/12 03:21:01;;;;;;;5.37;4.17;;;15.70;99.90;;;;;;4971019;28;20452;-83
2023/05/12 03:23:35;;;;;;;7.73;4.97;;;15.50;99.90;;;;;;4971320;28;20515;-84
2023/05/12 03:26:13;;;;;;;6.83;4.57;;;15.40;99.90;;;;;;4951706;28;20476;-83
2023/05/12 03:28:45;;;;;;;7.70;5.47;;;15.20;99.90;;;;;;4954633;28;20469;-82
2023/05/12 03:31:26;;;;;;;6.13;4.80;;;15.20;99.90;;;;;;4960285;28;20461;-84
2023/05/12 03:34:08;;;;;;;4.73;3.70;;;15.20;99.90;;;;;;4959904;28;20453;-80
2023/05/12 03:36:44;;;;;;;4.23;3.23;;;15.10;99.90;;;;;;4954980;28;20461;-84
2023/05/12 03:39:14;;;;;;;4.67;3.70;;;15.10;99.90;;;;;;4974451;28;20456;-83
2023/05/12 03:41:53;;;;;;;5.13;4.63;;;15.40;99.90;;;;;;4960725;28;20492;-83
2023/05/12 03:44:33;;;;;;;5.03;4.00;;;15.30;99.90;;;;;;4962005;28;20467;-82
2023/05/12 03:47:05;;;;;;;5.93;3.70;;;15.20;99.90;;;;;;4957018;29;20460;-84
2023/05/12 03:49:44;;;;;;;4.80;4.20;;;15.30;99.90;;;;;;4957579;28;20575;-82
2023/05/12 03:52:13;;;;;;;4.00;3.37;;;15.30;99.90;;;;;;4959537;28;20465;-81
2023/05/12 03:54:47;;;;;;;4.63;3.83;;;15.30;99.90;;;;;;4957189;28;20449;-82
2023/05/12 03:57:36;;;;;;;5.40;3.10;;;15.30;99.90;;;;;;4959223;28;20457;-82
2023/05/12 04:00:11;;;;;;;3.80;3.00;;;15.40;99.90;;;;;;4957166;28;20501;-81
2023/05/12 04:02:49;;;;;;;2.90;2.50;;;15.50;99.90;;;;;;4960489;28;20540;-82
2023/05/12 04:05:29;;;;;;;3.87;3.10;;;15.50;99.90;;;;;;4962239;28;20464;-83
2023/05/12 04:08:08;;;;;;;5.47;3.20;;;15.30;99.90;;;;;;4979920;28;20448;-83
2023/05/12 04:10:43;;;;;;;4.37;2.43;;;15.30;99.90;;;;;;4956949;28;20465;-82
2023/05/12 04:13:35;;;;;;;3.73;2.90;;;15.30;99.90;;;;;;4962625;28;20485;-81
2023/05/12 04:16:14;;;;;;;3.17;2.13;;;15.30;99.90;;;;;;4962576;28;20456;-82
2023/05/12 04:18:44;;;;;;;5.07;2.90;;;15.30;99.90;;;;;;4961128;28;20476;-82
2023/05/12 04:21:21;;;;;;;2.40;2.10;;;15.40;99.90;;;;;;4961412;28;21877;-83
2023/05/12 04:23:55;;;;;;;2.40;1.93;;;15.40;99.90;;;;;;4959418;28;21162;-83
2023/05/12 04:26:34;;;;;;;2.20;1.80;;;15.30;99.90;;;;;;4959954;28;21150;-83
2023/05/12 04:29:07;;;;;;;2.70;2.20;;;15.20;99.90;;;;;;4964778;28;20457;-83
2023/05/12 04:31:44;;;;;;;4.17;2.50;;;15.10;99.90;;;;;;4967553;28;20473;-82
2023/05/12 04:34:27;;;;;;;2.20;2.00;;;15.00;99.90;;;;;;4965046;28;20568;-82
2023/05/12 04:37:07;;;;;;;2.63;2.43;;;15.10;99.90;;;;;;4982451;28;20551;-83
2023/05/12 04:39:39;;;;;;;1.70;1.60;;;15.00;99.90;;;;;;4974747;28;20460;-82
2023/05/12 04:42:11;;;;;;;3.80;2.43;;;15.00;99.90;;;;;;4976065;28;20487;-82
2023/05/12 04:44:50;;;;;;;2.20;1.90;;;15.10;99.90;;;;;;4971494;28;20456;-83
2023/05/12 04:47:35;;;;;;;1.80;1.70;;;15.00;99.90;;;;;;4972190;28;20433;-82
2023/05/12 04:50:09;;;;;;;3.07;2.17;;;15.00;99.90;;;;;;4971466;28;20524;-83
2023/05/12 04:52:48;;;;;;;2.50;2.30;;;14.90;99.90;;;;;;4975013;28;20464;-83
2023/05/12 04:55:27;;;;;;;2.90;2.30;;;15.10;99.90;;;;;;4970546;28;20441;-83
2023/05/12 04:58:19;;;;;;;2.00;1.80;;;15.00;99.90;;;;;;4975124;28;20450;-83
2023/05/12 05:01:02;;;;;;;2.20;2.00;;;15.10;99.90;;;;;;4957138;28;20452;-82
2023/05/12 05:03:42;;;;;;;2.47;2.20;;;15.10;99.90;;;;;;4959737;28;20878;-83
2023/05/12 05:06:20;;;;;;;2.73;2.13;;;15.10;99.90;;;;;;4960202;28;20473;-82
2023/05/12 05:08:57;;;;;;;2.27;2.00;;;15.10;99.90;;;;;;4980632;28;20453;-82
2023/05/12 05:11:33;;;;;;;3.00;1.87;;;15.00;99.90;;;;;;4957444;28;20489;-82
2023/05/12 05:14:06;;;;;;;2.43;2.10;;;15.00;99.90;;;;;;4960470;28;20456;-82
2023/05/12 05:16:51;;;;;;;2.83;2.37;;;15.00;99.90;;;;;;4959982;28;20484;-83
2023/05/12 05:19:28;;;;;;;1.63;1.53;;;15.00;99.90;;;;;;4959400;28;20467;-83
2023/05/12 05:22:15;;;;;;;1.60;1.40;;;15.00;99.90;;;;;;4967683;28;20505;-83
2023/05/12 05:24:58;;;;;;;1.93;1.83;;;14.90;99.90;;;;;;4967204;28;20464;-83
2023/05/12 05:27:43;;;;;;;2.87;2.17;;;14.90;99.90;;;;;;4962551;28;20459;-83
2023/05/12 05:30:26;;;;;;;3.23;1.97;;;14.90;99.90;;;;;;4957216;28;20880;-83
2023/05/12 05:33:05;;;;;;;2.03;1.90;;;14.80;99.90;;;;;;4953545;29;20485;-83
2023/05/12 05:35:35;;;;;;;2.20;1.73;;;15.00;99.90;;;;;;4959630;28;20445;-82
2023/05/12 05:38:10;;;;;;;2.20;2.00;;;15.00;99.90;;;;;;4960480;29;20457;-83
2023/05/12 05:40:40;;;;;;;2.37;2.07;;;14.90;99.90;;;;;;4967210;28;20482;-84
2023/05/12 05:43:24;;;;;;;2.40;2.20;;;14.90;99.90;;;;;;4970645;28;20472;-84
2023/05/12 05:46:01;;;;;;;3.00;2.30;;;15.00;99.90;;;;;;4984193;28;20484;-82
2023/05/12 05:49:07;;;;;;;1.63;1.53;;;15.10;99.90;;;;;;4968245;28;20457;-83
2023/05/12 05:51:51;;;;;;;3.13;2.23;;;15.10;99.90;;;;;;4968994;28;20464;-83
2023/05/12 05:54:48;;;;;;;2.63;1.90;;;15.10;99.90;;;;;;4966748;28;20464;-83
2023/05/12 05:57:29;;;;;;;2.03;1.93;;;15.10;99.90;;;;;;4973359;28;20467;-83
2023/05/12 06:00:15;;;;;;;3.63;2.03;;;15.20;99.90;;;;;;4960974;28;20469;-84
2023/05/12 06:02:57;;;;;;;2.23;1.80;;;15.10;99.90;;;;;;4966051;28;20572;-82
2023/05/12 06:05:29;;;;;;;3.63;2.10;;;15.10;99.90;;;;;;4666241;28;8667418;-83
2023/05/12 06:08:04;;;;;;;2.30;2.20;;;15.10;99.90;;;;;;4968279;28;20841;-82
2023/05/12 06:10:45;;;;;;;2.80;2.27;;;15.10;99.90;;;;;;4961981;28;20481;-83
2023/05/12 06:13:20;;;;;;;2.70;2.30;;;15.20;99.90;;;;;;4961046;28;20472;-83
2023/05/12 06:16:09;;;;;;;2.43;2.23;;;15.30;99.90;;;;;;4960238;28;20460;-82
2023/05/12 06:18:49;;;;;;;3.60;2.37;;;15.30;99.90;;;;;;4964919;28;20500;-84
2023/05/12 06:21:36;;;;;;;2.57;2.33;;;15.30;99.90;;;;;;4966838;28;21655;-84
2023/05/12 06:24:09;;;;;;;3.87;2.90;;;15.30;99.90;;;;;;4964485;28;20472;-84
2023/05/12 06:26:43;;;;;;;3.07;2.30;;;15.20;99.90;;;;;;4966038;28;20528;-83
2023/05/12 06:29:26;;;;;;;2.77;2.57;;;15.40;99.90;;;;;;4969928;28;20448;-83
2023/05/12 06:32:16;;;;;;;2.40;2.30;;;15.60;99.90;;;;;;4968377;28;20648;-83
2023/05/12 06:34:51;;;;;;;3.00;2.53;;;15.70;99.90;;;;;;4965193;28;20457;-83
2023/05/12 06:37:34;;;;;;;2.90;2.70;;;15.80;99.90;;;;;;4961755;28;20470;-84
2023/05/12 06:40:35;;;;;;;2.67;2.40;;;15.90;99.90;;;;;;4959659;28;20464;-83
2023/05/12 06:43:15;;;;;;;3.77;1.93;;;15.90;99.90;;;;;;4957770;28;20517;-83
2023/05/12 06:45:47;;;;;;;2.33;2.03;;;16.00;99.90;;;;;;4962689;28;20465;-83
2023/05/12 06:48:28;;;;;;;2.50;2.27;;;16.20;99.90;;;;;;4963980;28;20499;-82
2023/05/12 06:50:55;;;;;;;2.80;1.80;;;16.10;99.90;;;;;;4973081;28;20477;-83
2023/05/12 06:53:36;;;;;;;5.03;2.30;;;16.10;99.90;;;;;;4961602;28;20496;-83
2023/05/12 06:56:15;;;;;;;3.10;2.00;;;16.10;99.90;;;;;;4971535;28;20457;-82
2023/05/12 06:58:46;;;;;;;2.73;2.50;;;16.10;99.90;;;;;;4967065;28;20441;-82
2023/05/12 07:01:32;;;;;;;2.50;2.30;;;16.30;99.90;;;;;;4970371;28;20475;-81
2023/05/12 07:04:14;;;;;;;2.87;1.80;;;16.50;99.90;;;;;;4962755;28;20480;-82
2023/05/12 07:06:43;;;;;;;2.30;2.10;;;16.50;99.90;;;;;;4957522;28;20524;-83
2023/05/12 07:09:17;;;;;;;2.57;2.20;;;16.50;99.90;;;;;;4972748;28;20467;-81
2023/05/12 07:11:50;;;;;;;7.40;2.60;;;16.40;99.90;;;;;;4962585;28;20503;-82
2023/05/12 07:14:35;;;;;;;2.40;2.20;;;16.50;99.90;;;;;;4966806;28;20441;-82
2023/05/12 07:17:14;;;;;;;2.93;2.40;;;16.60;99.90;;;;;;4964416;28;20528;-84
2023/05/12 07:19:51;;;;;;;2.83;2.47;;;16.70;99.90;;;;;;4974389;28;20454;-83
2023/05/12 07:22:44;;;;;;;2.30;2.20;;;16.90;99.90;;;;;;4967399;28;20492;-83
2023/05/12 07:25:19;;;;;;;3.20;2.57;;;16.90;99.90;;;;;;4985424;28;20437;-82
2023/05/12 07:27:57;;;;;;;2.73;2.53;;;16.70;99.90;;;;;;4974478;28;20487;-82
2023/05/12 07:30:43;;;;;;;3.57;2.67;;;16.50;99.90;;;;;;4968751;28;20488;-83
2023/05/12 07:33:20;;;;;;;3.20;2.30;;;16.40;99.90;;;;;;4981424;28;20474;-81
2023/05/12 07:35:53;;;;;;;2.80;2.30;;;16.30;99.90;;;;;;4985133;28;20467;-80
2023/05/12 07:38:29;;;;;;;2.70;2.50;;;16.30;99.90;;;;;;4968954;28;20509;-80
2023/05/12 07:41:04;;;;;;;2.37;2.10;;;16.30;99.90;;;;;;4983411;28;20456;-80
2023/05/12 07:43:40;;;;;;;2.40;2.20;;;16.30;99.90;;;;;;4968306;29;20455;-80
2023/05/12 07:46:24;;;;;;;3.13;2.27;;;16.30;99.90;;;;;;4963388;29;20448;-83
2023/05/12 07:49:08;;;;;;;2.40;2.00;;;16.40;99.90;;;;;;4952026;28;20953;-81
2023/05/12 07:52:02;;;;;;;2.60;2.40;;;16.50;99.90;;;;;;4963374;28;20498;-83
2023/05/12 07:54:43;;;;;;;2.70;2.50;;;16.40;99.90;;;;;;4954817;28;20461;-80
2023/05/12 07:57:28;;;;;;;1.90;1.80;;;16.50;99.90;;;;;;4958424;28;20464;-82
2023/05/12 08:00:04;;;;;;;2.03;1.60;;;16.60;99.90;;;;;;4960436;28;20457;-82
2023/05/12 08:02:45;;;;;;;1.90;1.80;;;16.60;99.90;;;;;;4961350;28;20480;-81
2023/05/12 08:05:22;;;;;;;2.10;1.90;;;16.60;99.90;;;;;;4959748;28;20606;-83
2023/05/12 08:07:52;;;;;;;2.47;2.00;;;16.90;99.90;;;;;;4976532;28;20966;-83
2023/05/12 08:10:28;;;;;;;1.90;1.80;;;17.10;99.60;;;;;;4961791;28;20532;-83
2023/05/12 08:13:26;;;;;;;1.40;1.30;;;17.20;99.40;;;;;;4958924;29;20465;-82
2023/05/12 08:16:10;;;;;;;1.90;1.80;;;17.70;98.70;;;;;;4906093;29;20486;-82
2023/05/12 08:18:55;;;;;;;1.80;1.70;;;18.20;97.70;;;;;;4903496;29;20451;-81
2023/05/12 08:21:45;;;;;;;1.30;1.20;;;18.80;96.40;;;;;;4904587;29;20486;-82
2023/05/12 08:24:20;;;;;;;2.37;2.10;;;18.90;95.70;;;;;;4900377;29;20474;-81
2023/05/12 08:27:00;;;;;;;2.07;1.97;;;18.60;95.40;;;;;;4902250;29;20463;-81
2023/05/12 08:29:31;;;;;;;1.60;1.50;;;18.50;95.30;;;;;;4888601;29;20546;-83
2023/05/12 08:32:16;;;;;;;1.70;1.60;;;18.10;95.30;;;;;;4922069;29;20532;-84
2023/05/12 08:34:53;;;;;;;1.77;1.67;;;17.70;95.90;;;;;;4905970;29;20474;-83
2023/05/12 08:37:39;;;;;;;;;;;;;;;;;;;;;
2023/05/12 08:40:45;;;;;;;2.00;1.80;;;17.70;97.50;;;;;;4916616;29;20473;-83
2023/05/12 08:43:50;;;;;;;1.70;1.60;;;17.60;97.20;;;;;;4901115;29;20478;-85
2023/05/12 08:46:24;;;;;;;1.33;1.23;;;18.00;97.20;;;;;;4926916;29;20464;-84
2023/05/12 08:49:02;;;;;;;1.60;1.50;;;18.50;96.30;;;;;;4960032;29;20488;-81
2023/05/12 08:51:59;;;;;;;2.60;1.80;;;19.00;94.80;;;;;;4962362;29;20492;-83
2023/05/12 08:54:46;;;;;;;1.77;1.50;;;19.00;94.80;;;;;;4963535;29;20457;-82
2023/05/12 08:57:34;;;;;;;1.50;1.40;;;18.90;94.10;;;;;;4960288;29;20510;-82
2023/05/12 09:00:20;;;;;;;3.50;2.50;;;18.90;94.10;;;;;;4967611;28;20967;-82
2023/05/12 09:03:06;;;;;;;4.40;1.77;;;18.50;94.10;;;;;;4963768;28;20480;-81
2023/05/12 09:06:12;;;;;;;3.50;1.30;;;18.60;94.50;;;;;;4972889;28;20449;-83
2023/05/12 09:08:53;;;;;;;2.10;1.60;;;18.60;94.40;;;;;;4974498;28;20459;-84
2023/05/12 09:11:30;;;;;;;1.70;1.60;;;18.90;93.90;;;;;;4975288;28;20484;-84
2023/05/12 09:14:25;;;;;;;1.70;1.60;;;19.20;93.30;;;;;;4966666;28;20499;-85
2023/05/12 09:17:05;;;;;;;1.67;1.57;;;19.30;92.70;;;;;;4976392;28;20543;-84
2023/05/12 09:20:01;;;;;;;1.70;1.50;;;19.50;93.00;;;;;;4956616;28;20491;-83
2023/05/12 09:22:34;;;;;;;1.50;1.40;;;19.90;92.30;;;;;;4951352;29;20472;-82
2023/05/12 09:25:22;;;;;;;2.67;1.60;;;19.80;92.10;;;;;;4937054;29;20870;-82
2023/05/12 09:27:59;;;;;;;1.77;1.60;;;20.20;91.50;;;;;;4920870;29;20576;-81
2023/05/12 09:30:54;;;;;;;1.43;1.33;;;20.30;90.80;;;;;;4935000;29;20481;-82
2023/05/12 09:33:26;;;;;;;1.63;1.53;;;20.40;90.80;;;;;;4921543;29;20463;-83
2023/05/12 09:36:07;;;;;;;2.13;1.70;;;20.00;91.10;;;;;;4929473;29;20450;-82
2023/05/12 09:39:03;;;;;;;1.50;1.40;;;19.60;91.50;;;;;;4938057;29;20457;-83
2023/05/12 09:41:46;;;;;;;2.00;1.90;;;19.10;92.30;;;;;;4960669;28;20548;-85
2023/05/12 09:44:25;;;;;;;2.30;2.10;;;18.80;93.10;;;;;;4958134;28;20644;-83
2023/05/12 09:47:24;;;;;;;2.30;1.90;;;18.90;93.50;;;;;;4957736;28;20441;-82
2023/05/12 09:50:01;;;;;;;2.07;1.97;;;19.10;93.30;;;;;;4968197;28;20452;-82
2023/05/12 09:53:07;;;;;;;1.90;1.70;;;19.30;92.50;;;;;;4969671;28;20484;-81
2023/05/12 09:55:51;;;;;;;2.03;1.90;;;19.30;92.10;;;;;;4963652;28;20518;-82
2023/05/12 09:58:41;;;;;;;1.90;1.80;;;19.10;92.70;;;;;;4954854;28;20519;-83
2023/05/12 10:01:39;;;;;;;1.57;1.47;;;19.20;92.70;;;;;;4964681;28;20540;-82
2023/05/12 10:04:16;;;;;;;2.03;1.87;;;19.30;92.30;;;;;;4966150;28;20515;-82
2023/05/12 10:07:14;;;;;;;2.00;1.90;;;19.90;92.30;;;;;;4967345;28;20452;-83
2023/05/12 10:10:19;;;;;;;2.80;2.00;;;20.80;90.10;;;;;;4958793;28;20481;-82
2023/05/12 10:13:13;;;;;;;2.37;2.17;;;21.50;87.70;;;;;;4962552;28;20543;-83
2023/05/12 10:15:58;;;;;;;2.20;2.00;;;22.00;84.10;;;;;;4967470;28;20446;-82
2023/05/12 10:18:40;;;;;;;2.00;1.77;;;22.60;81.50;;;;;;4980304;28;20480;-83
2023/05/12 10:21:25;;;;;;;2.10;2.00;;;22.50;78.60;;;;;;4888995;29;20463;-83
2023/05/12 10:24:07;;;;;;;1.70;1.60;;;22.80;77.20;;;;;;4914593;29;20444;-83
2023/05/12 10:26:40;;;;;;;2.20;2.00;;;22.30;77.50;;;;;;4875070;29;21027;-84
2023/05/12 10:29:33;;;;;;;1.77;1.67;;;22.10;78.70;;;;;;4903544;29;20481;-84
2023/05/12 10:32:23;;;;;;;2.43;1.93;;;21.80;77.50;;;;;;4886250;29;20519;-83
2023/05/12 10:35:10;;;;;;;2.60;2.03;;;21.70;78.10;;;;;;4893178;29;20919;-83
2023/05/12 10:37:48;;;;;;;1.80;1.70;;;22.00;78.90;;;;;;4894161;29;20461;-83
2023/05/12 10:40:57;;;;;;;1.60;1.50;;;23.10;74.90;;;;;;4909782;29;20947;-83
2023/05/12 10:43:55;;;;;;;2.10;2.00;;;23.70;71.60;;;;;;4891634;29;20455;-85
2023/05/12 10:46:33;;;;;;;1.70;1.60;;;24.00;70.50;;;;;;4908600;29;20476;-84
2023/05/12 10:49:45;;;;;;;2.90;2.20;;;24.10;62.90;;;;;;4909615;29;20461;-83
2023/05/12 10:52:27;;;;;;;1.90;1.80;;;23.20;65.40;;;;;;4923029;28;20543;-83
2023/05/12 10:55:13;;;;;;;2.47;2.07;;;22.70;67.80;;;;;;4975870;28;20449;-84
2023/05/12 10:58:34;;;;;;;3.30;2.03;;;22.20;70.10;;;;;;4971015;28;20456;-83
2023/05/12 11:01:36;;;;;;;1.80;1.70;;;21.70;72.20;;;;;;4985433;28;20457;-83
2023/05/12 11:04:53;;;;;;;2.50;1.90;;;21.30;76.10;;;;;;4968180;28;20532;-83
2023/05/12 11:08:06;;;;;;;3.80;2.20;;;21.20;79.50;;;;;;4970346;28;20559;-82
2023/05/12 11:10:55;;;;;;;2.07;1.80;;;20.80;79.80;;;;;;4961470;28;20493;-83
2023/05/12 11:13:36;;;;;;;2.27;2.07;;;20.50;81.50;;;;;;4965061;28;20987;-84
2023/05/12 11:16:30;;;;;;;2.10;1.90;;;20.50;82.20;;;;;;4963227;28;20507;-84
2023/05/12 11:19:21;;;;;;;2.23;2.03;;;20.40;82.50;;;;;;4959921;28;20529;-83
2023/05/12 11:22:34;;;;;;;2.50;2.30;;;20.40;82.60;;;;;;4959457;28;20484;-84
2023/05/12 11:25:31;;;;;;;2.33;2.13;;;20.40;83.20;;;;;;4960848;28;20452;-82
2023/05/12 11:28:24;;;;;;;1.90;1.80;;;20.70;82.50;;;;;;4960667;28;20483;-82
2023/05/12 11:31:04;;;;;;;2.40;1.73;;;21.10;80.40;;;;;;4958141;28;20450;-83
2023/05/12 11:34:12;;;;;;;2.23;2.03;;;20.90;79.60;;;;;;4947679;28;20461;-82
2023/05/12 11:36:58;;;;;;;2.23;2.00;;;21.00;80.20;;;;;;4962470;28;20460;-83
2023/05/12 11:39:54;;;;;;;2.87;2.17;;;20.80;80.00;;;;;;4955461;28;20772;-83
2023/05/12 11:43:00;;;;;;;2.40;2.20;;;21.20;79.00;;;;;;4956303;28;20484;-84
2023/05/12 11:45:56;;;;;;;1.90;1.80;;;21.20;78.10;;;;;;4956408;28;20840;-84
2023/05/12 11:49:19;;;;;;;1.80;1.70;;;21.50;77.40;;;;;;4957614;28;20461;-84
2023/05/12 11:52:05;;;;;;;1.90;1.80;;;21.90;75.60;;;;;;4970847;28;20505;-83
2023/05/12 11:55:21;;;;;;;1.70;1.60;;;22.00;75.60;;;;;;4957509;28;20453;-84
2023/05/12 11:58:33;;;;;;;1.90;1.80;;;22.60;73.50;;;;;;4971243;28;20509;-84
2023/05/12 12:01:49;;;;;;;1.93;1.80;;;23.10;69.50;;;;;;4957528;28;20495;-84
2023/05/12 12:04:52;;;;;;;2.40;2.10;;;23.50;67.20;;;;;;4959565;29;20433;-86
2023/05/12 12:07:41;;;;;;;2.37;2.17;;;23.20;68.00;;;;;;4961820;28;20457;-84
2023/05/12 12:10:32;;;;;;;2.10;2.00;;;22.90;65.70;;;;;;4960442;28;20975;-85
2023/05/12 12:13:25;;;;;;;1.93;1.83;;;22.50;66.40;;;;;;4962018;28;21011;-84
2023/05/12 12:16:21;;;;;;;3.03;2.50;;;22.60;65.20;;;;;;4955294;28;20461;-84
2023/05/12 12:19:07;;;;;;;2.40;2.17;;;22.50;68.00;;;;;;4963792;28;20477;-83
2023/05/12 12:21:41;;;;;;;2.27;2.17;;;22.50;66.00;;;;;;4960522;28;20488;-83
2023/05/12 12:24:19;;;;;;;2.37;2.10;;;22.50;64.00;;;;;;4961722;28;20524;-85
2023/05/12 12:27:06;;;;;;;2.40;2.30;;;22.20;64.50;;;;;;4959063;28;20512;-82
2023/05/12 12:29:34;;;;;;;2.00;1.90;;;22.00;65.70;;;;;;4966073;28;20449;-84
2023/05/12 12:32:14;;;;;;;2.40;2.20;;;21.80;65.20;;;;;;4960506;28;20612;-84
2023/05/12 12:35:16;;;;;;;2.00;1.90;;;21.60;66.10;;;;;;4960238;29;20442;-84
2023/05/12 12:37:59;;;;;;;3.03;2.20;;;21.40;66.90;;;;;;4965676;28;20982;-84
2023/05/12 12:41:01;;;;;;;2.37;2.17;;;21.40;67.80;;;;;;4962306;28;20456;-85
2023/05/12 12:43:34;;;;;;;2.70;1.90;;;21.70;68.30;;;;;;4961751;28;20499;-83
2023/05/12 12:46:37;;;;;;;2.30;2.10;;;22.00;67.20;;;;;;4965168;28;20468;-83
2023/05/12 12:49:21;;;;;;;1.90;1.80;;;22.00;66.70;;;;;;4964243;28;20943;-83
2023/05/12 12:51:55;;;;;;;3.83;2.40;;;22.00;66.00;;;;;;4974809;28;20494;-81
2023/05/12 12:54:32;;;;;;;2.20;2.07;;;22.10;65.70;;;;;;4962643;28;20452;-82
2023/05/12 12:57:18;;;;;;;2.50;2.30;;;22.10;65.80;;;;;;4971549;28;20464;-82
2023/05/12 13:00:07;;;;;;;1.90;1.80;;;22.10;63.60;;;;;;4972626;28;20503;-85
2023/05/12 13:02:57;;;;;;;2.20;2.00;;;22.10;63.40;;;;;;4971885;28;20507;-84
2023/05/12 13:05:33;;;;;;;1.90;1.70;;;22.10;64.10;;;;;;4968481;28;20476;-84
2023/05/12 13:08:16;;;;;;;1.77;1.67;;;22.50;64.10;;;;;;4973251;28;20463;-83
2023/05/12 13:10:49;;;;;;;3.63;3.33;;;22.70;62.10;;;;;;4953823;28;20456;-85
2023/05/12 13:13:23;;;;;;;2.37;2.27;;;22.70;62.90;;;;;;4985914;28;20504;-84
2023/05/12 13:15:52;;;;;;;2.67;2.00;;;22.70;61.50;;;;;;4967820;28;20464;-83
2023/05/12 13:18:28;;;;;;;2.27;2.07;;;22.60;61.80;;;;;;4962101;28;20676;-83
2023/05/12 13:20:55;;;;;;;2.50;2.30;;;22.50;63.50;;;;;;4961493;28;20449;-85
2023/05/12 13:23:25;;;;;;;3.60;1.77;;;22.50;62.40;;;;;;4959802;28;20472;-84
2023/05/12 13:25:57;;;;;;;2.67;2.10;;;22.40;62.30;;;;;;4956943;28;20476;-83
2023/05/12 13:28:33;;;;;;;1.90;1.80;;;22.30;63.40;;;;;;4959931;28;20449;-82
2023/05/12 13:31:28;;;;;;;2.40;2.20;;;22.60;61.80;;;;;;4952631;28;20456;-83
2023/05/12 13:34:31;;;;;;;2.33;2.10;;;22.50;62.60;;;;;;4979619;28;20485;-84
2023/05/12 13:37:22;;;;;;;2.37;2.17;;;22.40;62.40;;;;;;4958420;29;20484;-84
2023/05/12 13:40:00;;;;;;;1.93;1.83;;;22.30;62.70;;;;;;4963642;29;20515;-84
2023/05/12 13:42:35;;;;;;;1.53;1.43;;;22.10;60.80;;;;;;4967792;28;20487;-84
2023/05/12 13:45:14;;;;;;;1.50;1.40;;;22.00;59.60;;;;;;4959799;28;20485;-84
2023/05/12 13:47:46;;;;;;;1.93;1.83;;;22.00;58.40;;;;;;4963902;28;20461;-83
2023/05/12 13:50:54;;;;;;;1.60;1.50;;;21.90;57.70;;;;;;4963847;29;20452;-84
2023/05/12 13:53:36;;;;;;;2.10;1.90;;;21.70;57.60;;;;;;4964795;28;20488;-83
2023/05/12 13:56:35;;;;;;;1.73;1.60;;;21.60;58.00;;;;;;4964650;28;20461;-84
2023/05/12 13:59:03;;;;;;;2.17;1.97;;;21.70;59.10;;;;;;4977073;28;20547;-82
2023/05/12 14:01:53;;;;;;;2.40;2.10;;;21.70;58.70;;;;;;4963956;28;20474;-84
2023/05/12 14:04:23;;;;;;;3.10;2.50;;;21.60;59.20;;;;;;4966307;28;20467;-83
2023/05/12 14:07:00;;;;;;;2.20;2.00;;;21.70;59.80;;;;;;4972831;28;20448;-84